sensor_id;sensor_type;location;lat;lon;timestamp;pressure;altitude;pressure_sealevel;temperature;humidity
14612;BME280;7392;52.078;11.650;2023-07-22T00:00:22;100484.22;;;14.30;100.00
14612;BME280;7392;52.078;11.650;2023-07-22T00:02:50;100471.78;;;14.28;100.00
14612;BME280;7392;52.078;11.650;2023-07-22T00:05:17;100479.91;;;14.25;100.00
14612;BME280;7392;52.078;11.650;2023-07-22T00:07:49;100484.41;;;14.21;100.00
14612;BME280;7392;52.078;11.650;2023-07-22T00:10:19;100487.16;;;14.18;100.00
14612;BME280;7392;52.078;11.650;2023-07-22T00:12:47;100483.69;;;14.14;100.00
14612;BME280;7392;52.078;11.650;2023-07-22T00:15:14;100499.72;;;14.13;100.00
14612;BME280;7392;52.078;11.650;2023-07-22T00:17:42;100492.66;;;14.10;100.00
14612;BME280;7392;52.078;11.650;2023-07-22T00:20:10;100502.47;;;14.10;100.00
14612;BME280;7392;52.078;11.650;2023-07-22T00:22:38;100505.19;;;14.07;100.00
14612;BME280;7392;52.078;11.650;2023-07-22T00:25:07;100501.69;;;14.05;100.00
14612;BME280;7392;52.078;11.650;2023-07-22T00:27:39;100510.59;;;14.03;100.00
14612;BME280;7392;52.078;11.650;2023-07-22T00:30:08;100512.41;;;14.01;100.00
14612;BME280;7392;52.078;11.650;2023-07-22T00:32:36;100509.75;;;14.01;100.00
14612;BME280;7392;52.078;11.650;2023-07-22T00:35:05;100509.78;;;13.98;100.00
14612;BME280;7392;52.078;11.650;2023-07-22T00:37:33;100512.50;;;13.97;100.00
14612;BME280;7392;52.078;11.650;2023-07-22T00:40:02;100514.28;;;13.96;100.00
14612;BME280;7392;52.078;11.650;2023-07-22T00:42:32;100508.97;;;13.96;100.00
14612;BME280;7392;52.078;11.650;2023-07-22T00:45:01;100508.09;;;13.96;100.00
14612;BME280;7392;52.078;11.650;2023-07-22T00:47:29;100508.97;;;13.96;100.00
14612;BME280;7392;52.078;11.650;2023-07-22T00:49:57;100507.19;;;13.95;100.00
14612;BME280;7392;52.078;11.650;2023-07-22T00:52:25;100509.91;;;13.94;100.00
14612;BME280;7392;52.078;11.650;2023-07-22T00:54:53;100509.94;;;13.92;100.00
14612;BME280;7392;52.078;11.650;2023-07-22T00:57:21;100509.91;;;13.94;100.00
14612;BME280;7392;52.078;11.650;2023-07-22T00:59:49;100516.16;;;13.93;100.00
14612;BME280;7392;52.078;11.650;2023-07-22T01:02:19;100514.34;;;13.93;100.00
14612;BME280;7392;52.078;11.650;2023-07-22T01:04:48;100514.34;;;13.93;100.00
14612;BME280;7392;52.078;11.650;2023-07-22T01:07:16;100517.94;;;13.92;100.00
14612;BME280;7392;52.078;11.650;2023-07-22T01:09:44;100512.63;;;13.91;100.00
14612;BME280;7392;52.078;11.650;2023-07-22T01:12:12;100522.41;;;13.90;100.00
14612;BME280;7392;52.078;11.650;2023-07-22T01:14:41;100510.03;;;13.86;100.00
14612;BME280;7392;52.078;11.650;2023-07-22T01:17:10;100508.28;;;13.85;100.00
14612;BME280;7392;52.078;11.650;2023-07-22T01:19:41;100519.88;;;13.84;100.00
14612;BME280;7392;52.078;11.650;2023-07-22T01:22:09;100519.94;;;13.81;100.00
14612;BME280;7392;52.078;11.650;2023-07-22T01:24:39;100514.66;;;13.78;100.00
14612;BME280;7392;52.078;11.650;2023-07-22T01:27:09;100514.72;;;13.73;100.00
14612;BME280;7392;52.078;11.650;2023-07-22T01:29:38;100515.66;;;13.72;100.00
14612;BME280;7392;52.078;11.650;2023-07-22T01:32:07;100521.94;;;13.68;100.00
14612;BME280;7392;52.078;11.650;2023-07-22T01:34:35;100515.75;;;13.66;100.00
14612;BME280;7392;52.078;11.650;2023-07-22T01:37:03;100513.13;;;13.63;100.00
14612;BME280;7392;52.078;11.650;2023-07-22T01:39:31;100512.31;;;13.59;100.00
14612;BME280;7392;52.078;11.650;2023-07-22T01:42:01;100515.94;;;13.57;100.00
14612;BME280;7392;52.078;11.650;2023-07-22T01:44:28;100520.44;;;13.55;100.00
14612;BME280;7392;52.078;11.650;2023-07-22T01:46:56;100522.28;;;13.51;100.00
14612;BME280;7392;52.078;11.650;2023-07-22T01:49:24;100525.00;;;13.46;100.00
14612;BME280;7392;52.078;11.650;2023-07-22T01:51:52;100524.19;;;13.43;100.00
14612;BME280;7392;52.078;11.650;2023-07-22T01:54:20;100531.38;;;13.39;100.00
14612;BME280;7392;52.078;11.650;2023-07-22T01:56:48;100531.41;;;13.36;100.00
14612;BME280;7392;52.078;11.650;2023-07-22T01:59:17;100531.44;;;13.35;100.00
14612;BME280;7392;52.078;11.650;2023-07-22T02:01:45;100534.16;;;13.32;100.00
14612;BME280;7392;52.078;11.650;2023-07-22T02:04:14;100530.63;;;13.28;100.00
14612;BME280;7392;52.078;11.650;2023-07-22T02:06:42;100531.56;;;13.25;100.00
14612;BME280;7392;52.078;11.650;2023-07-22T02:09:11;100531.63;;;13.21;100.00
14612;BME280;7392;52.078;11.650;2023-07-22T02:11:40;100547.69;;;13.18;100.00
14612;BME280;7392;52.078;11.650;2023-07-22T02:14:08;100545.97;;;13.14;100.00
14612;BME280;7392;52.078;11.650;2023-07-22T02:16:37;100541.56;;;13.11;100.00
14612;BME280;7392;52.078;11.650;2023-07-22T02:19:05;100551.41;;;13.07;100.00
14612;BME280;7392;52.078;11.650;2023-07-22T02:21:39;100551.44;;;13.04;100.00
14612;BME280;7392;52.078;11.650;2023-07-22T02:24:07;100538.16;;;13.01;100.00
14612;BME280;7392;52.078;11.650;2023-07-22T02:26:35;100539.97;;;12.99;100.00
14612;BME280;7392;52.078;11.650;2023-07-22T02:29:03;100543.59;;;12.95;100.00
14612;BME280;7392;52.078;11.650;2023-07-22T02:31:31;100544.53;;;12.91;100.00
14612;BME280;7392;52.078;11.650;2023-07-22T02:34:00;100546.34;;;12.89;100.00
14612;BME280;7392;52.078;11.650;2023-07-22T02:36:28;100550.81;;;12.87;100.00
14612;BME280;7392;52.078;11.650;2023-07-22T02:38:56;100555.31;;;12.83;100.00
14612;BME280;7392;52.078;11.650;2023-07-22T02:41:24;100550.03;;;12.80;100.00
14612;BME280;7392;52.078;11.650;2023-07-22T02:43:52;100559.88;;;12.75;100.00
14612;BME280;7392;52.078;11.650;2023-07-22T02:46:20;100566.16;;;12.71;100.00
14612;BME280;7392;52.078;11.650;2023-07-22T02:48:48;100560.88;;;12.66;100.00
14612;BME280;7392;52.078;11.650;2023-07-22T02:51:17;100566.28;;;12.60;100.00
14612;BME280;7392;52.078;11.650;2023-07-22T02:53:45;100567.22;;;12.58;100.00
14612;BME280;7392;52.078;11.650;2023-07-22T02:56:13;100570.84;;;12.52;100.00
14612;BME280;7392;52.078;11.650;2023-07-22T02:58:41;100570.88;;;12.49;100.00
14612;BME280;7392;52.078;11.650;2023-07-22T03:01:10;100572.66;;;12.47;100.00
14612;BME280;7392;52.078;11.650;2023-07-22T03:03:37;100570.94;;;12.43;100.00
14612;BME280;7392;52.078;11.650;2023-07-22T03:06:06;100572.75;;;12.41;100.00
14612;BME280;7392;52.078;11.650;2023-07-22T03:08:37;100577.22;;;12.39;100.00
14612;BME280;7392;52.078;11.650;2023-07-22T03:11:05;100575.44;;;12.38;100.00
14612;BME280;7392;52.078;11.650;2023-07-22T03:13:33;100573.66;;;12.38;100.00
14612;BME280;7392;52.078;11.650;2023-07-22T03:16:02;100579.91;;;12.37;100.00
14612;BME280;7392;52.078;11.650;2023-07-22T03:18:31;100583.47;;;12.34;100.00
14612;BME280;7392;52.078;11.650;2023-07-22T03:20:59;100587.09;;;12.30;100.00
14612;BME280;7392;52.078;11.650;2023-07-22T03:23:27;100591.56;;;12.28;100.00
14612;BME280;7392;52.078;11.650;2023-07-22T03:25:57;100590.66;;;12.28;100.00
14612;BME280;7392;52.078;11.650;2023-07-22T03:28:24;100588.00;;;12.26;100.00
14612;BME280;7392;52.078;11.650;2023-07-22T03:30:53;100588.03;;;12.25;100.00
14612;BME280;7392;52.078;11.650;2023-07-22T03:33:21;100587.16;;;12.21;100.00
14612;BME280;7392;52.078;11.650;2023-07-22T03:35:48;100595.16;;;12.21;100.00
14612;BME280;7392;52.078;11.650;2023-07-22T03:38:16;100606.72;;;12.20;100.00
14612;BME280;7392;52.078;11.650;2023-07-22T03:40:44;100593.44;;;12.19;100.00
14612;BME280;7392;52.078;11.650;2023-07-22T03:43:14;100599.63;;;12.18;100.00
14612;BME280;7392;52.078;11.650;2023-07-22T03:45:41;100604.09;;;12.17;100.00
14612;BME280;7392;52.078;11.650;2023-07-22T03:48:09;100602.34;;;12.14;100.00
14612;BME280;7392;52.078;11.650;2023-07-22T03:50:37;100597.06;;;12.13;100.00
14612;BME280;7392;52.078;11.650;2023-07-22T03:53:05;100601.47;;;12.12;100.00
14612;BME280;7392;52.078;11.650;2023-07-22T03:55:33;100594.41;;;12.11;100.00
14612;BME280;7392;52.078;11.650;2023-07-22T03:58:01;100594.41;;;12.10;100.00
14612;BME280;7392;52.078;11.650;2023-07-22T04:00:30;100600.63;;;12.09;100.00
14612;BME280;7392;52.078;11.650;2023-07-22T04:02:58;100605.06;;;12.10;100.00
14612;BME280;7392;52.078;11.650;2023-07-22T04:05:26;100609.53;;;12.08;100.00
14612;BME280;7392;52.078;11.650;2023-07-22T04:07:54;100604.22;;;12.06;100.00
14612;BME280;7392;52.078;11.650;2023-07-22T04:10:22;100608.69;;;12.04;100.00
14612;BME280;7392;52.078;11.650;2023-07-22T04:12:50;100610.44;;;12.04;100.00
14612;BME280;7392;52.078;11.650;2023-07-22T04:15:17;100606.88;;;12.05;100.00
14612;BME280;7392;52.078;11.650;2023-07-22T04:17:47;100612.19;;;12.06;100.00
14612;BME280;7392;52.078;11.650;2023-07-22T04:20:15;100612.19;;;12.08;100.00
14612;BME280;7392;52.078;11.650;2023-07-22T04:22:44;100609.53;;;12.08;100.00
14612;BME280;7392;52.078;11.650;2023-07-22T04:25:12;100604.19;;;12.09;100.00
14612;BME280;7392;52.078;11.650;2023-07-22T04:27:41;100607.72;;;12.11;100.00
14612;BME280;7392;52.078;11.650;2023-07-22T04:30:10;100608.56;;;12.15;100.00
14612;BME280;7392;52.078;11.650;2023-07-22T04:32:41;100612.94;;;12.18;100.00
14612;BME280;7392;52.078;11.650;2023-07-22T04:35:12;100619.16;;;12.20;100.00
14612;BME280;7392;52.078;11.650;2023-07-22T04:37:39;100619.16;;;12.20;100.00
14612;BME280;7392;52.078;11.650;2023-07-22T04:40:08;100627.09;;;12.21;100.00
14612;BME280;7392;52.078;11.650;2023-07-22T04:42:40;100631.53;;;12.24;100.00
14612;BME280;7392;52.078;11.650;2023-07-22T04:45:09;100632.38;;;12.27;100.00
14612;BME280;7392;52.078;11.650;2023-07-22T04:47:38;100619.94;;;12.28;100.00
14612;BME280;7392;52.078;11.650;2023-07-22T04:50:07;100617.22;;;12.32;100.00
14612;BME280;7392;52.078;11.650;2023-07-22T04:52:37;100626.91;;;12.38;100.00
14612;BME280;7392;52.078;11.650;2023-07-22T04:55:06;100625.09;;;12.43;100.00
14612;BME280;7392;52.078;11.650;2023-07-22T04:57:36;100630.38;;;12.48;100.00
14612;BME280;7392;52.078;11.650;2023-07-22T05:00:04;100633.84;;;12.54;100.00
14612;BME280;7392;52.078;11.650;2023-07-22T05:02:32;100632.00;;;12.60;100.00
14612;BME280;7392;52.078;11.650;2023-07-22T05:05:00;100645.28;;;12.64;100.00
14612;BME280;7392;52.078;11.650;2023-07-22T05:07:28;100635.44;;;12.71;100.00
14612;BME280;7392;52.078;11.650;2023-07-22T05:09:58;100635.31;;;12.79;100.00
14612;BME280;7392;52.078;11.650;2023-07-22T05:12:26;100635.25;;;12.83;100.00
14612;BME280;7392;52.078;11.650;2023-07-22T05:14:54;100640.47;;;12.91;100.00
14612;BME280;7392;52.078;11.650;2023-07-22T05:17:21;100635.97;;;12.96;100.00
14612;BME280;7392;52.078;11.650;2023-07-22T05:19:49;100634.13;;;13.01;100.00
14612;BME280;7392;52.078;11.650;2023-07-22T05:22:17;100643.81;;;13.08;100.00
14612;BME280;7392;52.078;11.650;2023-07-22T05:24:45;100642.84;;;13.13;100.00
14612;BME280;7392;52.078;11.650;2023-07-22T05:27:14;100640.13;;;13.17;100.00
14612;BME280;7392;52.078;11.650;2023-07-22T05:29:42;100649.81;;;13.23;100.00
14612;BME280;7392;52.078;11.650;2023-07-22T05:32:10;100651.50;;;13.28;100.00
14612;BME280;7392;52.078;11.650;2023-07-22T05:34:57;100649.69;;;13.34;100.00
14612;BME280;7392;52.078;11.650;2023-07-22T05:37:25;100655.81;;;13.39;100.00
14612;BME280;7392;52.078;11.650;2023-07-22T05:39:52;100654.88;;;13.44;100.00
14612;BME280;7392;52.078;11.650;2023-07-22T05:42:22;100664.56;;;13.50;100.00
14612;BME280;7392;52.078;11.650;2023-07-22T05:44:49;100654.69;;;13.55;100.00
14612;BME280;7392;52.078;11.650;2023-07-22T05:47:17;100657.28;;;13.61;100.00
14612;BME280;7392;52.078;11.650;2023-07-22T05:49:46;100655.41;;;13.67;100.00
14612;BME280;7392;52.078;11.650;2023-07-22T05:52:14;100649.97;;;13.73;100.00
14612;BME280;7392;52.078;11.650;2023-07-22T05:54:42;100662.28;;;13.80;100.00
14612;BME280;7392;52.078;11.650;2023-07-22T05:57:09;100664.00;;;13.86;100.00
14612;BME280;7392;52.078;11.650;2023-07-22T05:59:39;100664.78;;;13.92;100.00
14612;BME280;7392;52.078;11.650;2023-07-22T06:02:07;100661.97;;;13.98;100.00
14612;BME280;7392;52.078;11.650;2023-07-22T06:04:36;100660.09;;;14.05;100.00
14612;BME280;7392;52.078;11.650;2023-07-22T06:07:05;100663.56;;;14.10;100.00
14612;BME280;7392;52.078;11.650;2023-07-22T06:09:33;100673.22;;;14.16;100.00
14612;BME280;7392;52.078;11.650;2023-07-22T06:12:02;100666.97;;;14.18;100.00
14612;BME280;7392;52.078;11.650;2023-07-22T06:14:30;100679.34;;;14.22;99.79
14612;BME280;7392;52.078;11.650;2023-07-22T06:17:00;100671.25;;;14.27;99.06
14612;BME280;7392;52.078;11.650;2023-07-22T06:19:27;100670.25;;;14.33;98.44
14612;BME280;7392;52.078;11.650;2023-07-22T06:21:55;100671.94;;;14.40;98.02
14612;BME280;7392;52.078;11.650;2023-07-22T06:24:23;100674.44;;;14.48;97.88
14612;BME280;7392;52.078;11.650;2023-07-22T06:26:51;100668.97;;;14.54;96.97
14612;BME280;7392;52.078;11.650;2023-07-22T06:29:18;100673.31;;;14.61;96.28
14612;BME280;7392;52.078;11.650;2023-07-22T06:31:46;100673.16;;;14.69;95.53
14612;BME280;7392;52.078;11.650;2023-07-22T06:34:15;100666.81;;;14.74;94.37
14612;BME280;7392;52.078;11.650;2023-07-22T06:36:43;100675.59;;;14.81;93.79
14612;BME280;7392;52.078;11.650;2023-07-22T06:39:11;100673.72;;;14.86;91.79
14612;BME280;7392;52.078;11.650;2023-07-22T06:41:39;100664.66;;;14.92;91.94
14612;BME280;7392;52.078;11.650;2023-07-22T06:44:07;100670.75;;;14.99;91.53
14612;BME280;7392;52.078;11.650;2023-07-22T06:46:34;100675.94;;;15.06;90.88
14612;BME280;7392;52.078;11.650;2023-07-22T06:49:02;100674.91;;;15.13;89.98
14612;BME280;7392;52.078;11.650;2023-07-22T06:51:31;100670.31;;;15.20;89.23
14612;BME280;7392;52.078;11.650;2023-07-22T06:53:59;100670.19;;;15.25;87.32
14612;BME280;7392;52.078;11.650;2023-07-22T06:56:27;100664.69;;;15.31;85.17
14612;BME280;7392;52.078;11.650;2023-07-22T06:58:55;100660.13;;;15.36;84.75
14612;BME280;7392;52.078;11.650;2023-07-22T07:01:23;100664.41;;;15.43;84.02
14612;BME280;7392;52.078;11.650;2023-07-22T07:03:51;100663.28;;;15.53;83.71
14612;BME280;7392;52.078;11.650;2023-07-22T07:06:19;100664.81;;;15.64;83.24
14612;BME280;7392;52.078;11.650;2023-07-22T07:08:48;100662.81;;;15.72;82.26
14612;BME280;7392;52.078;11.650;2023-07-22T07:11:16;100658.13;;;15.83;82.12
14612;BME280;7392;52.078;11.650;2023-07-22T07:13:44;100663.25;;;15.93;81.35
14612;BME280;7392;52.078;11.650;2023-07-22T07:16:23;100661.22;;;16.02;80.96
14612;BME280;7392;52.078;11.650;2023-07-22T07:18:52;100668.09;;;16.13;79.85
14612;BME280;7392;52.078;11.650;2023-07-22T07:21:21;100674.09;;;16.21;79.83
14612;BME280;7392;52.078;11.650;2023-07-22T07:23:51;100678.25;;;16.33;80.03
14612;BME280;7392;52.078;11.650;2023-07-22T07:26:20;100676.25;;;16.41;78.64
14612;BME280;7392;52.078;11.650;2023-07-22T07:28:48;100677.81;;;16.48;76.85
14612;BME280;7392;52.078;11.650;2023-07-22T07:31:17;100687.38;;;16.58;76.38
14612;BME280;7392;52.078;11.650;2023-07-22T07:33:45;100687.00;;;16.72;76.19
14612;BME280;7392;52.078;11.650;2023-07-22T07:36:13;100687.56;;;16.85;75.09
14612;BME280;7392;52.078;11.650;2023-07-22T07:38:41;100684.47;;;16.99;74.69
14612;BME280;7392;52.078;11.650;2023-07-22T07:41:10;100683.91;;;17.17;73.90
14612;BME280;7392;52.078;11.650;2023-07-22T07:43:40;100689.66;;;17.33;73.78
14612;BME280;7392;52.078;11.650;2023-07-22T07:46:15;100694.69;;;17.46;72.69
14612;BME280;7392;52.078;11.650;2023-07-22T07:48:45;100700.66;;;17.54;71.36
14612;BME280;7392;52.078;11.650;2023-07-22T07:51:14;100704.97;;;17.60;70.81
14612;BME280;7392;52.078;11.650;2023-07-22T07:53:42;100703.91;;;17.65;70.63
14612;BME280;7392;52.078;11.650;2023-07-22T07:56:12;100699.22;;;17.72;69.97
14612;BME280;7392;52.078;11.650;2023-07-22T07:58:41;100702.47;;;17.82;70.30
14612;BME280;7392;52.078;11.650;2023-07-22T08:01:09;100707.47;;;17.94;71.04
14612;BME280;7392;52.078;11.650;2023-07-22T08:03:38;100699.03;;;18.05;70.41
14612;BME280;7392;52.078;11.650;2023-07-22T08:06:07;100705.75;;;18.18;70.78
14612;BME280;7392;52.078;11.650;2023-07-22T08:08:35;100701.97;;;18.24;69.83
14612;BME280;7392;52.078;11.650;2023-07-22T08:11:05;100701.63;;;18.35;69.28
14612;BME280;7392;52.078;11.650;2023-07-22T08:13:35;100706.59;;;18.45;68.52
14612;BME280;7392;52.078;11.650;2023-07-22T08:16:05;100703.72;;;18.52;68.61
14612;BME280;7392;52.078;11.650;2023-07-22T08:18:34;100715.19;;;18.57;68.89
14612;BME280;7392;52.078;11.650;2023-07-22T08:21:02;100714.78;;;18.67;67.40
14612;BME280;7392;52.078;11.650;2023-07-22T08:23:30;100712.56;;;18.79;66.37
14612;BME280;7392;52.078;11.650;2023-07-22T08:25:58;100717.69;;;18.86;66.71
14612;BME280;7392;52.078;11.650;2023-07-22T08:28:26;100710.28;;;18.93;66.42
14612;BME280;7392;52.078;11.650;2023-07-22T08:30:56;100721.22;;;18.88;65.21
14612;BME280;7392;52.078;11.650;2023-07-22T08:33:24;100720.19;;;18.93;65.95
14612;BME280;7392;52.078;11.650;2023-07-22T08:36:06;100716.84;;;19.10;65.45
14612;BME280;7392;52.078;11.650;2023-07-22T08:38:34;100722.69;;;19.21;64.39
14612;BME280;7392;52.078;11.650;2023-07-22T08:41:02;100721.66;;;19.25;64.13
14612;BME280;7392;52.078;11.650;2023-07-22T08:43:30;100723.75;;;19.40;64.77
14612;BME280;7392;52.078;11.650;2023-07-22T08:46:04;100718.63;;;19.56;63.35
14612;BME280;7392;52.078;11.650;2023-07-22T08:48:34;100719.25;;;19.63;63.68
14612;BME280;7392;52.078;11.650;2023-07-22T08:51:06;100717.47;;;19.62;63.31
14612;BME280;7392;52.078;11.650;2023-07-22T08:53:34;100721.50;;;19.74;62.75
14612;BME280;7392;52.078;11.650;2023-07-22T08:56:04;100719.53;;;19.79;62.53
14612;BME280;7392;52.078;11.650;2023-07-22T08:58:32;100714.94;;;19.81;62.12
14612;BME280;7392;52.078;11.650;2023-07-22T09:01:02;100723.72;;;19.86;62.73
14612;BME280;7392;52.078;11.650;2023-07-22T09:03:31;100721.72;;;19.91;62.28
14612;BME280;7392;52.078;11.650;2023-07-22T09:06:00;100723.53;;;19.91;62.44
14612;BME280;7392;52.078;11.650;2023-07-22T09:08:28;100725.16;;;19.95;63.36
14612;BME280;7392;52.078;11.650;2023-07-22T09:10:56;100732.44;;;19.93;61.92
14612;BME280;7392;52.078;11.650;2023-07-22T09:13:26;100717.53;;;19.84;61.25
14612;BME280;7392;52.078;11.650;2023-07-22T09:15:56;100723.66;;;19.88;62.36
14612;BME280;7392;52.078;11.650;2023-07-22T09:18:26;100715.34;;;19.94;62.54
14612;BME280;7392;52.078;11.650;2023-07-22T09:20:53;100714.81;;;20.06;62.54
14612;BME280;7392;52.078;11.650;2023-07-22T09:23:32;100702.63;;;20.18;62.50
14612;BME280;7392;52.078;11.650;2023-07-22T09:26:08;100711.22;;;20.28;61.78
14612;BME280;7392;52.078;11.650;2023-07-22T09:28:51;100725.38;;;20.33;61.44
14612;BME280;7392;52.078;11.650;2023-07-22T09:31:20;100718.09;;;20.35;61.98
14612;BME280;7392;52.078;11.650;2023-07-22T09:33:50;100724.22;;;20.39;61.80
14612;BME280;7392;52.078;11.650;2023-07-22T09:36:17;100714.22;;;20.41;61.44
14612;BME280;7392;52.078;11.650;2023-07-22T09:38:45;100712.28;;;20.44;60.94
14612;BME280;7392;52.078;11.650;2023-07-22T09:41:27;100717.22;;;20.55;60.87
14612;BME280;7392;52.078;11.650;2023-07-22T09:43:55;100715.53;;;20.73;60.35
14612;BME280;7392;52.078;11.650;2023-07-22T09:46:31;100706.75;;;20.88;57.96
14612;BME280;7392;52.078;11.650;2023-07-22T09:49:03;100715.50;;;20.93;58.23
14612;BME280;7392;52.078;11.650;2023-07-22T09:51:33;100708.94;;;20.99;58.41
14612;BME280;7392;52.078;11.650;2023-07-22T09:54:06;100712.69;;;20.97;58.15
14612;BME280;7392;52.078;11.650;2023-07-22T09:56:43;100717.34;;;20.93;57.46
14612;BME280;7392;52.078;11.650;2023-07-22T09:59:11;100720.19;;;20.90;57.08
14612;BME280;7392;52.078;11.650;2023-07-22T10:01:40;100709.31;;;20.91;57.50
14612;BME280;7392;52.078;11.650;2023-07-22T10:04:12;100716.91;;;21.02;58.04
14612;BME280;7392;52.078;11.650;2023-07-22T10:06:43;100706.34;;;20.98;56.52
14612;BME280;7392;52.078;11.650;2023-07-22T10:09:11;100716.63;;;21.08;57.31
14612;BME280;7392;52.078;11.650;2023-07-22T10:11:40;100704.84;;;21.30;57.75
14612;BME280;7392;52.078;11.650;2023-07-22T10:14:08;100706.34;;;21.36;57.48
14612;BME280;7392;52.078;11.650;2023-07-22T10:16:36;100704.25;;;21.42;58.18
14612;BME280;7392;52.078;11.650;2023-07-22T10:19:04;100698.03;;;21.40;56.66
14612;BME280;7392;52.078;11.650;2023-07-22T10:21:34;100710.44;;;21.44;57.76
14612;BME280;7392;52.078;11.650;2023-07-22T10:24:05;100703.16;;;21.46;57.54
14612;BME280;7392;52.078;11.650;2023-07-22T10:26:34;100713.97;;;21.46;57.34
14612;BME280;7392;52.078;11.650;2023-07-22T10:29:05;100717.09;;;21.37;56.86
14612;BME280;7392;52.078;11.650;2023-07-22T10:31:34;100707.38;;;21.33;56.43
14612;BME280;7392;52.078;11.650;2023-07-22T10:34:03;100707.22;;;21.36;57.20
14612;BME280;7392;52.078;11.650;2023-07-22T10:36:31;100705.50;;;21.54;57.57
14612;BME280;7392;52.078;11.650;2023-07-22T10:39:00;100702.00;;;21.89;57.53
14612;BME280;7392;52.078;11.650;2023-07-22T10:41:31;100701.16;;;22.06;55.74
14612;BME280;7392;52.078;11.650;2023-07-22T10:43:59;100698.53;;;22.21;56.45
14612;BME280;7392;52.078;11.650;2023-07-22T10:46:32;100708.91;;;22.31;55.39
14612;BME280;7392;52.078;11.650;2023-07-22T10:49:09;100701.13;;;22.42;55.86
14612;BME280;7392;52.078;11.650;2023-07-22T10:51:38;100706.53;;;22.42;55.44
14612;BME280;7392;52.078;11.650;2023-07-22T10:54:12;100702.16;;;22.39;55.15
14612;BME280;7392;52.078;11.650;2023-07-22T10:56:41;100695.13;;;22.53;55.68
14612;BME280;7392;52.078;11.650;2023-07-22T10:59:10;100692.84;;;22.78;55.76
14612;BME280;7392;52.078;11.650;2023-07-22T11:01:39;100702.16;;;22.90;55.06
14612;BME280;7392;52.078;11.650;2023-07-22T11:04:10;100705.75;;;22.91;55.03
14612;BME280;7392;52.078;11.650;2023-07-22T11:06:38;100699.72;;;22.86;53.96
14612;BME280;7392;52.078;11.650;2023-07-22T11:09:06;100692.84;;;22.96;53.18
14612;BME280;7392;52.078;11.650;2023-07-22T11:11:37;100700.94;;;23.13;53.85
14612;BME280;7392;52.078;11.650;2023-07-22T11:14:15;100696.66;;;23.09;52.47
14612;BME280;7392;52.078;11.650;2023-07-22T11:16:45;100694.50;;;22.98;50.99
14612;BME280;7392;52.078;11.650;2023-07-22T11:19:15;100691.53;;;23.03;50.99
14612;BME280;7392;52.078;11.650;2023-07-22T11:21:44;100687.75;;;23.23;51.83
14612;BME280;7392;52.078;11.650;2023-07-22T11:24:12;100698.44;;;23.42;50.22
14612;BME280;7392;52.078;11.650;2023-07-22T11:26:43;100691.97;;;23.61;49.06
14612;BME280;7392;52.078;11.650;2023-07-22T11:29:12;100692.28;;;23.70;48.17
14612;BME280;7392;52.078;11.650;2023-07-22T11:31:43;100688.72;;;23.86;48.32
14612;BME280;7392;52.078;11.650;2023-07-22T11:34:12;100676.25;;;24.14;48.57
14612;BME280;7392;52.078;11.650;2023-07-22T11:36:41;100686.28;;;24.42;48.46
14612;BME280;7392;52.078;11.650;2023-07-22T11:39:11;100688.31;;;24.38;46.54
14612;BME280;7392;52.078;11.650;2023-07-22T11:41:40;100674.25;;;24.32;46.42
14612;BME280;7392;52.078;11.650;2023-07-22T11:44:12;100679.59;;;24.48;47.14
14612;BME280;7392;52.078;11.650;2023-07-22T11:46:47;100669.59;;;24.64;46.38
14612;BME280;7392;52.078;11.650;2023-07-22T11:49:23;100667.66;;;24.95;47.43
14612;BME280;7392;52.078;11.650;2023-07-22T11:51:54;100670.66;;;25.05;44.12
14612;BME280;7392;52.078;11.650;2023-07-22T11:54:22;100671.03;;;25.13;44.11
14612;BME280;7392;52.078;11.650;2023-07-22T11:56:50;100676.16;;;25.17;44.80
14612;BME280;7392;52.078;11.650;2023-07-22T11:59:32;100671.13;;;25.11;44.68
14612;BME280;7392;52.078;11.650;2023-07-22T12:02:00;100668.53;;;25.10;44.12
14612;BME280;7392;52.078;11.650;2023-07-22T12:04:29;100669.41;;;24.96;44.24
14612;BME280;7392;52.078;11.650;2023-07-22T12:06:56;100672.50;;;25.04;45.11
14612;BME280;7392;52.078;11.650;2023-07-22T12:09:25;100676.84;;;25.07;43.85
14612;BME280;7392;52.078;11.650;2023-07-22T12:11:55;100674.53;;;25.00;43.91
14612;BME280;7392;52.078;11.650;2023-07-22T12:14:32;100666.41;;;24.86;43.89
14612;BME280;7392;52.078;11.650;2023-07-22T12:17:01;100662.69;;;24.73;44.04
14612;BME280;7392;52.078;11.650;2023-07-22T12:19:29;100663.69;;;24.72;45.45
14612;BME280;7392;52.078;11.650;2023-07-22T12:21:57;100666.69;;;24.67;44.59
14612;BME280;7392;52.078;11.650;2023-07-22T12:24:26;100678.91;;;24.74;45.71
14612;BME280;7392;52.078;11.650;2023-07-22T12:26:54;100666.78;;;24.80;45.21
14612;BME280;7392;52.078;11.650;2023-07-22T12:29:22;100669.88;;;24.88;45.30
14612;BME280;7392;52.078;11.650;2023-07-22T12:31:51;100669.97;;;24.87;44.66
14612;BME280;7392;52.078;11.650;2023-07-22T12:34:19;100670.75;;;24.89;44.72
14612;BME280;7392;52.078;11.650;2023-07-22T12:36:47;100668.59;;;24.94;44.29
14612;BME280;7392;52.078;11.650;2023-07-22T12:39:15;100667.34;;;24.85;43.11
14612;BME280;7392;52.078;11.650;2023-07-22T12:41:43;100647.09;;;24.62;44.00
14612;BME280;7392;52.078;11.650;2023-07-22T12:44:11;100670.34;;;24.66;44.68
14612;BME280;7392;52.078;11.650;2023-07-22T12:46:39;100662.31;;;24.79;43.86
14612;BME280;7392;52.078;11.650;2023-07-22T12:49:08;100661.34;;;24.94;43.58
14612;BME280;7392;52.078;11.650;2023-07-22T12:51:36;100656.78;;;25.09;42.44
14612;BME280;7392;52.078;11.650;2023-07-22T12:54:04;100645.53;;;25.30;43.22